createdAt,value
2023-12-11T00:01:33.661Z,86.33
2023-12-11T00:04:37.106Z,84.94
2023-12-11T00:07:39.787Z,84.78
2023-12-11T00:10:43.018Z,84.13
2023-12-11T00:13:45.695Z,85.49
2023-12-11T00:16:48.994Z,86.40
2023-12-11T00:19:51.805Z,87.49
2023-12-11T00:22:55.362Z,88.41
2023-12-11T00:25:58.042Z,87.98
2023-12-11T00:29:01.223Z,87.62
2023-12-11T00:32:04.769Z,88.41
2023-12-11T00:35:08.183Z,88.20
2023-12-11T00:38:10.828Z,88.62
2023-12-11T00:41:14.122Z,88.72
2023-12-11T00:44:16.908Z,87.52
2023-12-11T00:47:20.140Z,88.30
2023-12-11T00:50:22.802Z,88.22
2023-12-11T00:53:26.046Z,87.98
2023-12-11T00:56:29.447Z,87.11
2023-12-11T00:59:32.695Z,87.67
2023-12-11T01:02:35.370Z,87.34
2023-12-11T01:05:38.513Z,87.17
2023-12-11T01:08:41.433Z,86.95
2023-12-11T01:11:44.744Z,87.52
2023-12-11T01:14:47.384Z,88.14
2023-12-11T01:17:50.930Z,88.62
2023-12-11T01:20:53.809Z,88.15
2023-12-11T01:23:58.183Z,88.35
2023-12-11T01:27:00.916Z,90.31
2023-12-11T01:30:04.466Z,90.45
2023-12-11T01:33:07.144Z,90.98
2023-12-11T01:36:10.532Z,90.56
2023-12-11T01:39:13.133Z,90.50
2023-12-11T01:42:16.609Z,90.96
2023-12-11T01:45:19.289Z,89.61
2023-12-11T01:48:23.376Z,89.29
2023-12-11T01:51:26.464Z,90.32
2023-12-11T01:54:30.530Z,90.16
2023-12-11T01:57:33.407Z,89.50
2023-12-11T02:00:36.727Z,90.45
2023-12-11T02:03:40.145Z,89.52
2023-12-11T02:06:43.432Z,90.12
2023-12-11T02:09:46.057Z,90.43
2023-12-11T02:12:49.520Z,91.12
2023-12-11T02:15:52.489Z,90.74
2023-12-11T02:18:55.882Z,90.56
2023-12-11T02:21:58.620Z,90.56
2023-12-11T02:25:05.331Z,90.29
2023-12-11T02:28:08.257Z,89.33
2023-12-11T02:31:12.180Z,89.21
2023-12-11T02:34:14.901Z,89.25
2023-12-11T02:37:18.217Z,89.08
2023-12-11T02:40:20.851Z,89.99
2023-12-11T02:43:24.138Z,90.42
2023-12-11T02:46:26.921Z,88.50
2023-12-11T02:49:30.446Z,89.04
2023-12-11T02:52:33.132Z,89.58
2023-12-11T02:55:36.396Z,89.97
2023-12-11T02:58:39.153Z,89.89
2023-12-11T03:01:42.513Z,90.07
2023-12-11T03:04:45.351Z,89.78
2023-12-11T03:07:48.919Z,89.39
2023-12-11T03:10:51.560Z,89.48
2023-12-11T03:13:54.701Z,89.14
2023-12-11T03:16:57.241Z,88.76
2023-12-11T03:20:00.896Z,88.50
2023-12-11T03:23:03.601Z,88.15
2023-12-11T03:26:06.823Z,87.78
2023-12-11T03:29:09.478Z,87.75
2023-12-11T03:32:12.947Z,87.43
2023-12-11T03:35:15.658Z,87.53
2023-12-11T03:38:18.859Z,87.34
2023-12-11T03:41:21.428Z,86.86
2023-12-11T03:44:25.296Z,87.41
2023-12-11T03:47:28.144Z,87.71
2023-12-11T03:50:31.549Z,87.21
2023-12-11T03:53:34.157Z,86.85
2023-12-11T03:56:37.612Z,87.02
2023-12-11T03:59:40.208Z,86.19
2023-12-11T04:02:43.900Z,85.99
2023-12-11T04:05:47.636Z,85.56
2023-12-11T04:08:50.512Z,85.89
2023-12-11T04:11:53.479Z,86.12
2023-12-11T04:14:56.310Z,85.56
2023-12-11T04:17:59.184Z,85.73
2023-12-11T04:21:02.391Z,86.03
2023-12-11T04:24:05.891Z,86.10
2023-12-11T04:27:08.607Z,85.53
2023-12-11T04:30:11.929Z,85.76
2023-12-11T04:33:14.886Z,85.86
2023-12-11T04:36:17.889Z,85.91
2023-12-11T04:39:20.757Z,85.85
2023-12-11T04:42:23.801Z,86.01
2023-12-11T04:45:26.747Z,86.13
2023-12-11T04:48:29.737Z,85.80
2023-12-11T04:51:32.688Z,85.72
2023-12-11T04:54:35.940Z,85.57
2023-12-11T04:57:39.009Z,85.76
2023-12-11T05:00:42.087Z,85.89
2023-12-11T05:03:45.544Z,86.17
2023-12-11T05:06:48.351Z,84.80
2023-12-11T05:09:51.241Z,84.54
2023-12-11T05:12:54.205Z,84.30
2023-12-11T05:15:57.139Z,83.66
2023-12-11T05:19:00.165Z,83.72
2023-12-11T05:22:04.006Z,83.97
2023-12-11T05:25:07.689Z,83.98
2023-12-11T05:28:10.627Z,82.82
2023-12-11T05:31:13.655Z,82.35
2023-12-11T05:34:16.655Z,82.77
2023-12-11T05:37:19.696Z,83.58
2023-12-11T05:40:24.061Z,84.30
2023-12-11T05:43:27.281Z,84.40
2023-12-11T05:46:30.256Z,83.80
2023-12-11T05:49:33.211Z,84.27
2023-12-11T05:52:36.310Z,84.22
2023-12-11T05:55:39.202Z,84.15
2023-12-11T05:58:42.164Z,83.29
2023-12-11T06:01:45.336Z,83.67
2023-12-11T06:04:48.538Z,83.34
2023-12-11T06:07:51.136Z,82.08
2023-12-11T06:10:54.836Z,82.57
2023-12-11T06:13:57.436Z,83.08
2023-12-11T06:17:01.141Z,83.71
2023-12-11T06:20:05.514Z,83.40
2023-12-11T06:23:08.705Z,83.18
2023-12-11T06:26:11.841Z,83.31
2023-12-11T06:29:14.859Z,82.96
2023-12-11T06:32:17.424Z,82.32
2023-12-11T06:35:20.604Z,82.29
2023-12-11T06:38:23.203Z,83.03
2023-12-11T06:41:26.508Z,83.49
2023-12-11T06:44:29.173Z,83.26
2023-12-11T06:47:32.759Z,83.20
2023-12-11T06:50:36.653Z,83.36
2023-12-11T06:53:39.827Z,83.35
2023-12-11T06:56:42.822Z,83.45
2023-12-11T06:59:46.116Z,83.61
2023-12-11T07:02:48.783Z,83.78
2023-12-11T07:05:52.048Z,83.79
2023-12-11T07:08:54.735Z,83.34
2023-12-11T07:11:58.006Z,83.43
2023-12-11T07:15:01.633Z,83.64
2023-12-11T07:18:04.978Z,83.06
2023-12-11T07:21:10.980Z,82.71
2023-12-11T07:24:14.372Z,83.08
2023-12-11T07:27:17.128Z,83.67
2023-12-11T07:30:20.733Z,82.99
2023-12-11T07:33:23.550Z,83.49
2023-12-11T07:36:28.937Z,83.98
2023-12-11T07:39:31.458Z,84.10
2023-12-11T07:42:34.706Z,84.03
2023-12-11T07:45:37.325Z,84.13
2023-12-11T07:48:41.353Z,83.72
2023-12-11T07:51:44.573Z,83.78
2023-12-11T07:54:47.809Z,82.14
2023-12-11T07:57:50.359Z,82.86
2023-12-11T08:00:53.917Z,83.42
2023-12-11T08:03:56.994Z,83.86
2023-12-11T08:07:00.017Z,83.87
2023-12-11T08:10:05.735Z,83.76
2023-12-11T08:13:08.823Z,83.61
2023-12-11T08:16:13.725Z,83.62
2023-12-11T08:19:16.674Z,83.60
2023-12-11T08:22:19.661Z,83.81
2023-12-11T08:25:23.201Z,82.95
2023-12-11T08:28:26.225Z,83.66
2023-12-11T08:31:29.273Z,83.66
2023-12-11T08:34:32.512Z,83.68
2023-12-11T08:37:36.240Z,83.60
2023-12-11T08:40:39.330Z,82.41
2023-12-11T08:43:42.308Z,82.88
2023-12-11T08:46:45.689Z,83.01
2023-12-11T08:49:48.705Z,83.27
2023-12-11T08:52:51.676Z,82.86
2023-12-11T08:55:55.656Z,82.81
2023-12-11T08:58:58.684Z,82.52
2023-12-11T09:02:01.630Z,81.30
2023-12-11T09:05:05.090Z,81.50
2023-12-11T09:08:08.106Z,81.51
2023-12-11T09:11:10.954Z,81.99
2023-12-11T09:14:13.849Z,81.28
2023-12-11T09:17:16.748Z,81.50
2023-12-11T09:20:19.737Z,81.39
2023-12-11T09:23:22.797Z,81.52
2023-12-11T09:26:26.015Z,80.55
2023-12-11T09:29:28.893Z,80.69
2023-12-11T09:32:31.847Z,80.74
2023-12-11T09:35:34.898Z,79.76
2023-12-11T09:38:38.526Z,80.11
2023-12-11T09:41:44.098Z,79.98
2023-12-11T09:44:48.808Z,78.21
2023-12-11T09:48:04.787Z,79.30
2023-12-11T09:51:16.498Z,79.78
2023-12-11T09:54:19.469Z,80.05
2023-12-11T09:57:22.911Z,79.61
2023-12-11T10:00:26.203Z,78.75
2023-12-11T10:03:29.989Z,75.71
2023-12-11T10:06:32.672Z,75.94
2023-12-11T10:09:35.780Z,76.98
2023-12-11T10:21:18.087Z,75.36
2023-12-11T10:24:21.261Z,74.86
2023-12-11T10:27:28.339Z,75.10
2023-12-11T10:30:31.718Z,75.54
2023-12-11T10:33:35.027Z,74.18
2023-12-11T10:36:49.423Z,73.28
2023-12-11T10:39:55.853Z,71.73
2023-12-11T10:43:01.701Z,72.20
2023-12-11T10:46:04.622Z,70.47
2023-12-11T10:49:08.496Z,69.00
2023-12-11T10:52:12.136Z,69.78
2023-12-11T10:55:16.064Z,69.22
2023-12-11T10:58:19.031Z,66.84
2023-12-11T11:01:22.678Z,65.42
2023-12-11T11:04:27.393Z,58.56
2023-12-11T11:07:36.470Z,56.43
2023-12-11T11:10:48.844Z,57.87
2023-12-11T11:14:25.213Z,58.46
2023-12-11T11:18:03.814Z,58.52
2023-12-11T11:21:14.173Z,59.86
2023-12-11T11:24:30.146Z,60.28
2023-12-11T11:27:44.116Z,58.67
2023-12-11T11:30:52.843Z,56.55
2023-12-11T11:33:58.467Z,57.69
2023-12-11T11:37:01.843Z,57.30
2023-12-11T11:40:05.930Z,57.09
2023-12-11T11:43:10.362Z,54.54
2023-12-11T11:46:13.589Z,52.54
2023-12-11T11:49:33.666Z,45.98
2023-12-11T11:52:40.134Z,41.93
2023-12-11T11:55:43.269Z,43.54
2023-12-11T11:58:47.027Z,46.94
2023-12-11T12:01:54.312Z,48.85
2023-12-11T12:05:09.841Z,51.29
2023-12-11T12:08:13.871Z,50.36
2023-12-11T12:11:17.103Z,46.23
2023-12-11T12:14:22.607Z,45.76
2023-12-11T12:17:26.082Z,41.96
2023-12-11T12:20:28.963Z,38.37
2023-12-11T12:23:33.050Z,40.26
2023-12-11T12:26:37.078Z,42.32
2023-12-11T12:29:41.816Z,45.29
2023-12-11T12:32:45.049Z,45.63
2023-12-11T12:35:50.071Z,45.63
2023-12-11T12:38:52.858Z,43.11
2023-12-11T12:41:57.664Z,42.78
2023-12-11T12:45:00.816Z,43.80
2023-12-11T12:48:05.905Z,45.16
2023-12-11T12:51:10.803Z,47.31
2023-12-11T12:54:15.887Z,49.69
2023-12-11T12:57:18.693Z,51.45
2023-12-11T13:00:21.838Z,53.80
2023-12-11T13:03:25.493Z,54.92
2023-12-11T13:06:28.926Z,55.66
2023-12-11T13:09:33.258Z,55.91
2023-12-11T13:12:36.538Z,56.53
2023-12-11T13:15:40.544Z,57.23
2023-12-11T13:18:43.973Z,58.49
2023-12-11T13:21:46.885Z,59.42
2023-12-11T13:24:50.039Z,60.57
2023-12-11T13:27:52.667Z,61.29
2023-12-11T13:30:55.739Z,61.91
2023-12-11T13:33:58.454Z,62.82
2023-12-11T13:37:01.595Z,63.90
2023-12-11T13:40:08.341Z,64.67
2023-12-11T13:43:12.867Z,65.05
2023-12-11T13:46:15.893Z,65.47
2023-12-11T13:49:19.232Z,65.94
2023-12-11T13:52:22.332Z,66.46
2023-12-11T13:55:25.604Z,67.05
2023-12-11T13:58:28.807Z,67.63
2023-12-11T14:01:32.054Z,67.79
2023-12-11T14:04:34.983Z,68.32
2023-12-11T14:07:38.010Z,68.40
2023-12-11T14:10:41.028Z,68.85
2023-12-11T14:13:43.946Z,69.34
2023-12-11T14:16:46.838Z,69.76
2023-12-11T14:19:50.168Z,69.72
2023-12-11T14:22:53.280Z,70.41
2023-12-11T14:25:58.210Z,70.57
2023-12-11T14:29:01.125Z,71.12
2023-12-11T14:32:04.186Z,71.90
2023-12-11T14:35:07.605Z,72.77
2023-12-11T14:38:10.569Z,73.41
2023-12-11T14:41:14.183Z,73.90
2023-12-11T14:44:19.224Z,74.28
2023-12-11T14:47:23.245Z,74.74
2023-12-11T14:50:26.128Z,75.03
2023-12-11T14:53:29.698Z,75.40
2023-12-11T14:56:32.648Z,75.67
2023-12-11T14:59:36.207Z,76.14
2023-12-11T15:02:39.427Z,76.61
2023-12-11T15:05:42.437Z,77.07
2023-12-11T15:08:45.519Z,77.39
2023-12-11T15:11:48.498Z,77.76
2023-12-11T15:14:51.609Z,78.00
2023-12-11T15:17:54.603Z,78.17
2023-12-11T15:20:57.639Z,78.26
2023-12-11T15:24:00.589Z,78.45
2023-12-11T15:27:05.090Z,78.55
2023-12-11T15:30:09.385Z,78.72
2023-12-11T15:33:12.462Z,78.74
2023-12-11T15:36:19.655Z,78.43
2023-12-11T15:39:24.898Z,78.44
2023-12-11T15:42:27.838Z,77.68
2023-12-11T15:45:30.713Z,78.00
2023-12-11T15:48:33.922Z,78.19
2023-12-11T15:51:36.875Z,78.62
2023-12-11T15:54:44.150Z,77.96
2023-12-11T15:57:47.073Z,78.46
2023-12-11T16:00:50.109Z,78.11
2023-12-11T16:03:53.578Z,78.01
2023-12-11T16:06:56.353Z,77.35
2023-12-11T16:09:59.525Z,77.76
2023-12-11T16:13:02.381Z,77.27
2023-12-11T16:16:10.148Z,77.38
2023-12-11T16:19:13.803Z,77.34
2023-12-11T16:22:17.738Z,77.35
2023-12-11T16:25:20.323Z,77.38
2023-12-11T16:28:23.623Z,77.28
2023-12-11T16:31:26.384Z,77.56
2023-12-11T16:34:32.702Z,77.26
2023-12-11T16:37:35.520Z,77.35
2023-12-11T16:40:40.945Z,77.96
2023-12-11T16:43:48.711Z,78.51
2023-12-11T16:46:51.863Z,78.82
2023-12-11T16:50:02.070Z,78.90
2023-12-11T16:53:09.974Z,77.72
2023-12-11T16:56:13.887Z,77.86
2023-12-11T16:59:17.636Z,78.39
2023-12-11T17:02:20.299Z,78.98
2023-12-11T17:05:23.701Z,78.85
2023-12-11T17:08:26.874Z,78.45
2023-12-11T17:11:34.555Z,78.28
2023-12-11T17:14:37.059Z,78.37
2023-12-11T17:17:58.840Z,77.45
2023-12-11T17:21:03.677Z,77.99
2023-12-11T17:24:07.821Z,77.72
2023-12-11T17:27:10.582Z,77.82
2023-12-11T17:30:14.001Z,78.06
2023-12-11T17:33:16.606Z,77.63
2023-12-11T17:36:20.029Z,78.57
2023-12-11T17:39:24.172Z,77.98
2023-12-11T17:42:28.109Z,78.49
2023-12-11T17:45:30.637Z,78.88
2023-12-11T17:48:34.003Z,79.28
2023-12-11T17:51:36.794Z,79.93
2023-12-11T17:54:40.025Z,79.79
2023-12-11T17:57:42.743Z,79.92
2023-12-11T18:00:46.057Z,79.19
2023-12-11T18:03:49.548Z,78.87
2023-12-11T18:06:52.771Z,78.98
2023-12-11T18:09:55.692Z,79.73
2023-12-11T18:12:58.584Z,79.64
2023-12-11T18:16:01.621Z,79.76
2023-12-11T18:19:04.649Z,80.23
2023-12-11T18:22:08.079Z,80.08
2023-12-11T18:25:12.330Z,80.09
2023-12-11T18:28:16.510Z,79.68
2023-12-11T18:31:19.629Z,79.39
2023-12-11T18:34:23.059Z,79.80
2023-12-11T18:37:26.772Z,80.25
2023-12-11T18:40:29.915Z,80.04
2023-12-11T18:43:33.025Z,79.63
2023-12-11T18:46:36.200Z,79.92
2023-12-11T18:49:46.064Z,80.51
2023-12-11T18:52:49.731Z,80.45
2023-12-11T18:56:01.776Z,80.44
2023-12-11T18:59:04.971Z,80.25
2023-12-11T19:02:09.191Z,79.41
2023-12-11T19:05:12.437Z,80.05
2023-12-11T19:08:15.479Z,80.00
2023-12-11T19:11:20.470Z,80.57
2023-12-11T19:14:24.045Z,80.28
2023-12-11T19:17:47.168Z,80.72
2023-12-11T19:20:50.076Z,80.29
2023-12-11T19:23:53.015Z,79.24
2023-12-11T19:26:55.959Z,79.75
2023-12-11T19:29:58.893Z,80.21
2023-12-11T19:33:03.174Z,80.70
2023-12-11T19:36:07.453Z,80.51
2023-12-11T19:39:11.069Z,79.28
2023-12-11T19:42:14.164Z,79.90
2023-12-11T19:45:17.679Z,79.91
2023-12-11T19:48:20.851Z,80.18
2023-12-11T19:51:48.126Z,80.06
2023-12-11T19:55:10.287Z,79.50
2023-12-11T19:58:13.169Z,79.95
2023-12-11T20:01:26.517Z,80.12
2023-12-11T20:04:29.924Z,80.31
2023-12-11T20:07:32.802Z,80.87
2023-12-11T20:10:36.216Z,81.17
2023-12-11T20:13:40.174Z,81.25
2023-12-11T20:16:43.848Z,81.20
2023-12-11T20:19:46.774Z,80.83
2023-12-11T20:22:52.563Z,81.23
2023-12-11T20:26:01.483Z,80.67
2023-12-11T20:29:04.974Z,80.52
2023-12-11T20:32:07.595Z,80.19
2023-12-11T20:35:10.842Z,80.32
2023-12-11T20:38:13.530Z,80.19
2023-12-11T20:41:25.052Z,80.19
2023-12-11T20:44:27.738Z,80.59
2023-12-11T20:47:31.216Z,81.07
2023-12-11T20:50:34.105Z,81.29
2023-12-11T20:53:39.048Z,80.99
2023-12-11T20:56:41.745Z,81.44
2023-12-11T20:59:45.162Z,81.31
2023-12-11T21:02:48.131Z,81.77
2023-12-11T21:05:51.250Z,81.17
2023-12-11T21:08:56.097Z,80.94
2023-12-11T21:11:59.354Z,81.40
2023-12-11T21:15:03.942Z,81.31
2023-12-11T21:18:07.657Z,81.42
2023-12-11T21:21:16.246Z,80.81
2023-12-11T21:24:19.541Z,80.62
2023-12-11T21:27:22.267Z,80.72
2023-12-11T21:30:26.496Z,81.23
2023-12-11T21:33:29.382Z,81.26
2023-12-11T21:36:32.944Z,81.35
2023-12-11T21:39:35.592Z,81.51
2023-12-11T21:42:38.889Z,81.01
2023-12-11T21:45:41.559Z,81.47
2023-12-11T21:48:48.163Z,80.89
2023-12-11T21:51:51.498Z,80.32
2023-12-11T21:54:54.790Z,80.14
2023-12-11T21:57:57.374Z,79.17
2023-12-11T22:01:00.670Z,80.27
2023-12-11T22:04:03.974Z,80.92
2023-12-11T22:07:07.005Z,80.95
2023-12-11T22:10:10.056Z,82.11
2023-12-11T22:13:12.984Z,82.92
2023-12-11T22:16:16.495Z,83.40
2023-12-11T22:19:19.749Z,83.32
2023-12-11T22:22:22.724Z,83.07
2023-12-11T22:25:25.571Z,83.40
2023-12-11T22:28:28.636Z,83.41
2023-12-11T22:31:31.772Z,83.37
2023-12-11T22:34:35.232Z,82.56
2023-12-11T22:37:39.605Z,81.92
2023-12-11T22:40:42.725Z,81.66
2023-12-11T22:43:45.555Z,81.30
2023-12-11T22:46:48.520Z,81.21
2023-12-11T22:49:51.400Z,79.27
2023-12-11T22:52:54.475Z,80.26
2023-12-11T22:55:57.413Z,81.77
2023-12-11T22:59:00.328Z,82.31
2023-12-11T23:02:04.458Z,82.64
2023-12-11T23:05:07.962Z,83.04
2023-12-11T23:08:10.885Z,83.36
2023-12-11T23:11:13.854Z,83.38
2023-12-11T23:14:16.754Z,83.03
2023-12-11T23:17:19.589Z,83.10
2023-12-11T23:20:22.441Z,83.10
2023-12-11T23:23:25.497Z,83.40
2023-12-11T23:26:28.348Z,83.31
2023-12-11T23:29:31.199Z,83.20
2023-12-11T23:32:34.028Z,83.33
2023-12-11T23:35:37.042Z,82.99
2023-12-11T23:38:40.403Z,80.56
2023-12-11T23:41:44.756Z,80.99
2023-12-11T23:44:47.685Z,82.14
2023-12-11T23:47:50.620Z,83.44
2023-12-11T23:50:53.494Z,83.85
2023-12-11T23:53:56.620Z,84.11
2023-12-11T23:56:59.448Z,84.27
